createdAt,value
2023-04-02T00:02:22.442Z,99384.48
2023-04-02T00:05:30.737Z,99388.60
2023-04-02T00:08:03.489Z,99389.98
2023-04-02T00:10:38.706Z,99392.05
2023-04-02T00:13:10.417Z,99402.28
2023-04-02T00:15:41.562Z,99401.33
2023-04-02T00:18:15.462Z,99405.17
2023-04-02T00:20:57.457Z,99409.29
2023-04-02T00:23:28.515Z,99414.38
2023-04-02T00:25:57.192Z,99423.00
2023-04-02T00:28:26.802Z,99423.05
2023-04-02T00:31:00.164Z,99415.85
2023-04-02T00:33:32.036Z,99430.10
2023-04-02T00:36:00.866Z,99432.42
2023-04-02T00:38:35.247Z,99431.04
2023-04-02T00:41:06.860Z,99436.62
2023-04-02T00:43:39.485Z,99435.71
2023-04-02T00:46:14.981Z,99436.93
2023-04-02T00:49:09.384Z,99432.36
2023-04-02T00:51:45.094Z,99440.52
2023-04-02T00:54:17.640Z,99447.19
2023-04-02T00:56:49.278Z,99446.13
2023-04-02T00:59:26.176Z,99451.78
2023-04-02T01:02:19.785Z,99449.84
2023-04-02T01:05:20.300Z,99449.58
2023-04-02T01:08:08.728Z,99458.12
2023-04-02T01:10:55.752Z,99462.27
2023-04-02T01:13:40.638Z,99463.80
2023-04-02T01:16:18.543Z,99466.48
2023-04-02T01:19:04.094Z,99471.47
2023-04-02T01:21:44.068Z,99476.42
2023-04-02T01:24:14.288Z,99486.68
2023-04-02T01:27:00.471Z,99489.45
2023-04-02T01:29:38.363Z,99488.33
2023-04-02T01:32:13.425Z,99487.58
2023-04-02T01:34:46.712Z,99491.42
2023-04-02T01:37:38.221Z,99499.77
2023-04-02T01:40:21.954Z,99507.88
2023-04-02T01:42:53.699Z,99513.17
2023-04-02T01:45:23.922Z,99518.55
2023-04-02T01:47:52.747Z,99525.79
2023-04-02T01:50:37.505Z,99527.09
2023-04-02T01:53:10.780Z,99530.00
2023-04-02T01:55:52.884Z,99531.69
2023-04-02T01:58:28.024Z,99531.67
2023-04-02T02:01:07.466Z,99535.00
2023-04-02T02:03:44.779Z,99540.84
2023-04-02T02:06:16.862Z,99541.44
2023-04-02T02:08:56.654Z,99547.13
2023-04-02T02:11:29.278Z,99549.47
2023-04-02T02:14:19.221Z,99556.00
2023-04-02T02:16:49.675Z,99558.77
2023-04-02T02:19:39.938Z,99563.66
2023-04-02T02:22:35.449Z,99567.35
2023-04-02T02:25:12.234Z,99571.73
2023-04-02T02:27:52.843Z,99576.38
2023-04-02T02:30:47.405Z,99577.30
2023-04-02T02:33:29.230Z,99583.55
2023-04-02T02:36:03.695Z,99596.13
2023-04-02T02:39:17.456Z,99603.00
2023-04-02T02:42:01.608Z,99602.91
2023-04-02T02:44:35.302Z,99608.45
2023-04-02T02:47:16.916Z,99612.70
2023-04-02T02:49:50.178Z,99617.30
2023-04-02T02:52:31.968Z,99620.20
2023-04-02T02:55:15.815Z,99625.89
2023-04-02T02:57:54.489Z,99634.99
2023-04-02T03:00:24.945Z,99634.73
2023-04-02T03:02:57.283Z,99640.33
2023-04-02T03:05:29.423Z,99647.17
2023-04-02T03:08:05.912Z,99649.58
2023-04-02T03:10:39.581Z,99655.56
2023-04-02T03:13:35.761Z,99667.45
2023-04-02T03:16:16.826Z,99663.79
2023-04-02T03:18:58.777Z,99672.09
2023-04-02T03:21:38.216Z,99681.04
2023-04-02T03:24:36.087Z,99683.14
2023-04-02T03:27:07.742Z,99689.01
2023-04-02T03:29:42.063Z,99686.02
2023-04-02T03:32:22.822Z,99695.44
2023-04-02T03:35:01.864Z,99698.41
2023-04-02T03:37:33.200Z,99707.11
2023-04-02T03:40:09.064Z,99707.90
2023-04-02T03:42:53.722Z,99712.51
2023-04-02T03:45:28.549Z,99715.89
2023-04-02T03:48:05.977Z,99721.92
2023-04-02T03:51:00.856Z,99723.51
2023-04-02T03:53:32.337Z,99727.17
2023-04-02T03:56:02.711Z,99729.18
2023-04-02T03:58:42.356Z,99733.96
2023-04-02T04:01:20.762Z,99738.33
2023-04-02T04:03:53.579Z,99742.05
2023-04-02T04:06:29.242Z,99743.05
2023-04-02T04:09:07.421Z,99751.22
2023-04-02T04:11:45.875Z,99759.20
2023-04-02T04:14:20.646Z,99763.67
2023-04-02T04:17:04.692Z,99769.91
2023-04-02T04:19:49.699Z,99776.72
2023-04-02T04:22:30.647Z,99783.71
2023-04-02T04:25:08.506Z,99788.38
2023-04-02T04:27:45.541Z,99792.63
2023-04-02T04:30:18.604Z,99799.65
2023-04-02T04:32:59.004Z,99802.56
2023-04-02T04:35:57.255Z,99808.20
2023-04-02T04:38:39.792Z,99815.17
2023-04-02T04:41:27.127Z,99819.90
2023-04-02T04:44:13.705Z,99826.15
2023-04-02T04:46:47.428Z,99828.34
2023-04-02T04:49:22.604Z,99833.55
2023-04-02T04:51:54.700Z,99838.21
2023-04-02T04:54:27.067Z,99844.77
2023-04-02T04:57:01.432Z,99848.11
2023-04-02T04:59:42.888Z,99854.80
2023-04-02T05:02:27.025Z,99856.71
2023-04-02T05:04:57.102Z,99862.70
2023-04-02T05:07:28.495Z,99865.52
2023-04-02T05:10:08.546Z,99874.11
2023-04-02T05:13:11.134Z,99876.70
2023-04-02T05:16:01.181Z,99881.30
2023-04-02T05:18:49.477Z,99888.46
2023-04-02T05:21:27.372Z,99890.06
2023-04-02T05:24:25.153Z,99893.95
2023-04-02T05:27:04.561Z,99897.96
2023-04-02T05:29:39.302Z,99902.59
2023-04-02T05:32:17.289Z,99905.25
2023-04-02T05:34:51.838Z,99913.45
2023-04-02T05:37:24.680Z,99919.41
2023-04-02T05:39:57.305Z,99926.73
2023-04-02T05:42:31.198Z,99931.14
2023-04-02T05:45:19.727Z,99931.45
2023-04-02T05:47:52.297Z,99938.66
2023-04-02T05:50:27.371Z,99937.27
2023-04-02T05:53:11.518Z,99936.98
2023-04-02T05:56:03.960Z,99945.11
2023-04-02T05:58:45.528Z,99947.58
2023-04-02T06:01:37.645Z,99950.95
2023-04-02T06:04:30.120Z,99950.66
2023-04-02T06:07:02.894Z,99957.23
2023-04-02T06:09:47.054Z,99957.50
2023-04-02T06:12:24.947Z,99963.39
2023-04-02T06:14:54.152Z,99966.51
2023-04-02T06:17:24.221Z,99971.04
2023-04-02T06:19:56.530Z,99977.67
2023-04-02T06:22:46.906Z,99980.83
2023-04-02T06:25:23.707Z,99991.17
2023-04-02T06:27:56.964Z,99993.08
2023-04-02T06:30:33.953Z,100000.71
2023-04-02T06:33:04.029Z,100003.95
2023-04-02T06:35:38.351Z,100009.04
2023-04-02T06:38:17.815Z,100009.88
2023-04-02T06:41:01.511Z,100008.81
2023-04-02T06:44:01.824Z,100015.30
2023-04-02T06:46:54.472Z,100019.77
2023-04-02T06:49:33.507Z,100024.14
2023-04-02T06:52:11.415Z,100032.88
2023-04-02T06:54:40.354Z,100035.54
2023-04-02T06:57:14.270Z,100042.30
2023-04-02T06:59:45.471Z,100043.44
2023-04-02T07:02:37.588Z,100043.73
2023-04-02T07:05:11.826Z,100052.02
2023-04-02T07:07:46.312Z,100055.36
2023-04-02T07:10:16.038Z,100059.45
2023-04-02T07:12:44.924Z,100063.77
2023-04-02T07:15:17.852Z,100067.91
2023-04-02T07:17:47.229Z,100070.81
2023-04-02T07:20:37.898Z,100076.02
2023-04-02T07:23:10.816Z,100077.98
2023-04-02T07:25:40.399Z,100084.19
2023-04-02T07:28:09.191Z,100087.03
2023-04-02T07:30:38.095Z,100092.46
2023-04-02T07:33:07.791Z,100097.19
2023-04-02T07:35:37.170Z,100095.35
2023-04-02T07:38:06.608Z,100098.64
2023-04-02T07:40:36.009Z,100101.86
2023-04-02T07:43:05.832Z,100109.73
2023-04-02T07:45:36.609Z,100113.08
2023-04-02T07:48:12.826Z,100122.53
2023-04-02T07:50:43.274Z,100123.60
2023-04-02T07:53:33.264Z,100133.88
2023-04-02T07:56:08.815Z,100139.66
2023-04-02T07:58:38.603Z,100140.77
2023-04-02T08:01:20.631Z,100148.50
2023-04-02T08:03:52.959Z,100149.13
2023-04-02T08:06:25.289Z,100151.42
2023-04-02T08:08:54.275Z,100156.01
2023-04-02T08:11:23.225Z,100158.83
2023-04-02T08:13:52.503Z,100165.17
2023-04-02T08:16:21.767Z,100166.67
2023-04-02T08:18:50.728Z,100172.05
2023-04-02T08:21:19.788Z,100179.24
2023-04-02T08:23:48.917Z,100182.05
2023-04-02T08:26:19.724Z,100184.20
2023-04-02T08:28:54.465Z,100189.66
2023-04-02T08:31:24.052Z,100194.80
2023-04-02T08:33:54.419Z,100200.20
2023-04-02T08:36:31.252Z,100196.50
2023-04-02T08:39:02.000Z,100202.34
2023-04-02T08:41:51.063Z,100208.27
2023-04-02T08:44:27.438Z,100209.33
2023-04-02T08:47:08.778Z,100212.42
2023-04-02T08:49:50.530Z,100212.42
2023-04-02T08:52:24.962Z,100219.08
2023-04-02T08:54:56.759Z,100221.56
2023-04-02T08:57:51.459Z,100222.09
2023-04-02T09:00:49.268Z,100216.01
2023-04-02T09:03:39.719Z,100220.05
2023-04-02T09:06:16.477Z,100225.58
2023-04-02T09:08:48.168Z,100225.78
2023-04-02T09:11:41.794Z,100228.99
2023-04-02T09:14:20.757Z,100233.48
2023-04-02T09:16:54.901Z,100238.29
2023-04-02T09:19:31.877Z,100236.71
2023-04-02T09:22:17.688Z,100243.76
2023-04-02T09:24:52.438Z,100245.30
2023-04-02T09:27:28.036Z,100247.28
2023-04-02T09:30:04.180Z,100252.63
2023-04-02T09:32:46.032Z,100253.34
2023-04-02T09:35:25.346Z,100252.13
2023-04-02T09:38:07.769Z,100262.17
2023-04-02T09:40:59.200Z,100264.00
2023-04-02T09:43:37.163Z,100270.63
2023-04-02T09:46:32.386Z,100270.70
2023-04-02T09:49:01.993Z,100276.98
2023-04-02T09:51:34.493Z,100276.50
2023-04-02T09:54:03.176Z,100280.45
2023-04-02T09:56:39.700Z,100282.98
2023-04-02T09:59:15.869Z,100285.45
2023-04-02T10:01:53.667Z,100293.00
2023-04-02T10:04:39.616Z,100297.85
2023-04-02T10:07:30.575Z,100302.04
2023-04-02T10:10:21.459Z,100304.86
2023-04-02T10:12:57.939Z,100309.01
2023-04-02T10:15:34.167Z,100315.61
2023-04-02T10:18:15.280Z,100318.14
2023-04-02T10:20:51.369Z,100323.27
2023-04-02T10:23:24.526Z,100327.98
2023-04-02T10:26:35.412Z,100331.00
2023-04-02T10:29:25.915Z,100335.48
2023-04-02T10:32:03.301Z,100338.00
2023-04-02T10:34:43.454Z,100340.59
2023-04-02T10:37:24.741Z,100342.41
2023-04-02T10:40:21.063Z,100345.09
2023-04-02T10:43:01.743Z,100348.66
2023-04-02T10:45:57.865Z,100345.38
2023-04-02T10:48:43.553Z,100350.59
2023-04-02T10:51:24.530Z,100354.63
2023-04-02T10:54:03.046Z,100354.17
2023-04-02T10:56:44.137Z,100357.71
2023-04-02T10:59:26.783Z,100364.94
2023-04-02T11:02:00.903Z,100371.13
2023-04-02T11:04:46.606Z,100370.84
2023-04-02T11:07:21.418Z,100374.27
2023-04-02T11:09:55.586Z,100376.89
2023-04-02T11:12:43.918Z,100376.04
2023-04-02T11:15:18.260Z,100386.32
2023-04-02T11:17:48.655Z,100391.16
2023-04-02T11:20:48.505Z,100386.95
2023-04-02T11:23:20.469Z,100390.66
2023-04-02T11:25:49.649Z,100392.02
2023-04-02T11:28:29.432Z,100383.64
2023-04-02T11:30:59.383Z,100400.53
2023-04-02T11:33:38.200Z,100402.02
2023-04-02T11:36:48.010Z,100407.74
2023-04-02T11:39:54.252Z,100413.20
2023-04-02T11:42:28.581Z,100417.18
2023-04-02T11:45:01.905Z,100420.84
2023-04-02T11:47:31.325Z,100421.13
2023-04-02T11:50:02.450Z,100426.98
2023-04-02T11:52:52.382Z,100432.61
2023-04-02T11:55:25.500Z,100438.70
2023-04-02T11:58:26.640Z,100441.30
2023-04-02T12:01:16.845Z,100444.23
2023-04-02T12:03:50.570Z,100451.40
2023-04-02T12:06:40.622Z,100453.09
2023-04-02T12:09:19.527Z,100454.82
2023-04-02T12:11:51.646Z,100458.64
2023-04-02T12:14:43.509Z,100461.89
2023-04-02T12:17:37.865Z,100460.80
2023-04-02T12:20:10.920Z,100465.84
2023-04-02T12:22:50.177Z,100465.95
2023-04-02T12:25:40.877Z,100466.21
2023-04-02T12:28:10.413Z,100469.81
2023-04-02T12:30:41.882Z,100470.99
2023-04-02T12:33:21.628Z,100480.92
2023-04-02T12:35:58.894Z,100481.52
2023-04-02T12:38:35.627Z,100484.58
2023-04-02T12:41:20.153Z,100485.00
2023-04-02T12:43:58.906Z,100484.76
2023-04-02T12:46:31.473Z,100486.35
2023-04-02T12:49:17.631Z,100487.45
2023-04-02T12:51:48.479Z,100486.77
2023-04-02T12:54:20.181Z,100489.19
2023-04-02T12:56:49.978Z,100495.40
2023-04-02T12:59:36.477Z,100489.10
2023-04-02T13:02:22.286Z,100496.77
2023-04-02T13:05:02.711Z,100502.80
2023-04-02T13:07:34.650Z,100504.17
2023-04-02T13:10:25.963Z,100508.14
2023-04-02T13:12:58.132Z,100509.90
2023-04-02T13:15:36.975Z,100516.81
2023-04-02T13:18:06.364Z,100516.64
2023-04-02T13:20:39.997Z,100515.80
2023-04-02T13:23:27.868Z,100519.70
2023-04-02T13:26:00.912Z,100522.64
2023-04-02T13:28:30.468Z,100520.80
2023-04-02T13:31:00.164Z,100519.92
2023-04-02T13:33:29.692Z,100522.80
2023-04-02T13:35:58.759Z,100526.77
2023-04-02T13:38:28.168Z,100523.80
2023-04-02T13:40:57.982Z,100522.63
2023-04-02T13:43:27.462Z,100528.21
2023-04-02T13:46:00.614Z,100527.32
2023-04-02T13:48:30.251Z,100532.88
2023-04-02T13:50:59.681Z,100535.66
2023-04-02T13:53:33.868Z,100539.27
2023-04-02T13:56:03.340Z,100539.16
2023-04-02T13:58:32.679Z,100538.66
2023-04-02T14:01:02.444Z,100544.23
2023-04-02T14:03:31.985Z,100544.47
2023-04-02T14:06:13.376Z,100546.15
2023-04-02T14:09:01.906Z,100552.31
2023-04-02T14:11:45.869Z,100554.30
2023-04-02T14:14:26.841Z,100561.38
2023-04-02T14:17:21.151Z,100568.23
2023-04-02T14:20:12.000Z,100572.17
2023-04-02T14:23:14.226Z,100576.47
2023-04-02T14:25:56.552Z,100573.75
2023-04-02T14:28:58.089Z,100575.58
2023-04-02T14:31:54.707Z,100573.49
2023-04-02T14:34:33.072Z,100580.46
2023-04-02T14:37:22.891Z,100583.79
2023-04-02T14:40:21.595Z,100586.89
2023-04-02T14:43:28.063Z,100588.92
2023-04-02T14:46:00.773Z,100591.22
2023-04-02T14:48:55.130Z,100593.92
2023-04-02T14:52:04.414Z,100593.10
2023-04-02T14:54:45.890Z,100592.80
2023-04-02T14:57:31.234Z,100585.59
2023-04-02T15:00:06.098Z,100603.52
2023-04-02T15:02:47.282Z,100600.59
2023-04-02T15:05:17.251Z,100606.41
2023-04-02T15:07:58.354Z,100605.20
2023-04-02T15:10:37.652Z,100609.02
2023-04-02T15:13:15.938Z,100613.33
2023-04-02T15:15:54.779Z,100613.75
2023-04-02T15:18:25.962Z,100615.63
2023-04-02T15:21:10.304Z,100624.39
2023-04-02T15:23:57.948Z,100619.88
2023-04-02T15:26:45.984Z,100627.08
2023-04-02T15:29:30.435Z,100624.45
2023-04-02T15:32:23.687Z,100629.58
2023-04-02T15:35:17.561Z,100633.73
2023-04-02T15:37:52.912Z,100634.30
2023-04-02T15:40:34.704Z,100637.60
2023-04-02T15:43:23.336Z,100638.22
2023-04-02T15:46:10.793Z,100644.14
2023-04-02T15:48:45.813Z,100645.42
2023-04-02T15:51:36.718Z,100645.22
2023-04-02T15:54:27.316Z,100641.56
2023-04-02T15:57:25.474Z,100644.11
2023-04-02T16:00:29.066Z,100650.12
2023-04-02T16:03:28.300Z,100660.30
2023-04-02T16:06:17.680Z,100659.98
2023-04-02T16:09:16.479Z,100666.09
2023-04-02T16:11:46.406Z,100667.42
2023-04-02T16:14:28.684Z,100669.84
2023-04-02T16:17:17.479Z,100672.89
2023-04-02T16:20:24.545Z,100677.91
2023-04-02T16:23:13.752Z,100680.12
2023-04-02T16:26:26.747Z,100682.54
2023-04-02T16:29:40.805Z,100685.64
2023-04-02T16:32:57.732Z,100688.05
2023-04-02T16:36:05.010Z,100695.45
2023-04-02T16:38:47.517Z,100702.68
2023-04-02T16:41:44.272Z,100707.80
2023-04-02T16:44:38.161Z,100710.19
2023-04-02T16:47:46.096Z,100711.29
2023-04-02T16:50:35.342Z,100708.04
2023-04-02T16:53:38.662Z,100717.23
2023-04-02T16:56:25.402Z,100720.19
2023-04-02T16:59:32.312Z,100725.55
2023-04-02T17:02:21.157Z,100730.38
2023-04-02T17:04:59.443Z,100738.77
2023-04-02T17:07:31.844Z,100740.35
2023-04-02T17:10:45.351Z,100741.19
2023-04-02T17:13:30.156Z,100749.67
2023-04-02T17:16:04.970Z,100752.34
2023-04-02T17:18:34.715Z,100751.80
2023-04-02T17:21:10.817Z,100759.83
2023-04-02T17:23:56.355Z,100765.64
2023-04-02T17:26:30.317Z,100769.81
2023-04-02T17:29:04.445Z,100777.23
2023-04-02T17:31:35.601Z,100779.54
2023-04-02T17:34:15.338Z,100785.19
2023-04-02T17:37:28.682Z,100782.38
2023-04-02T17:40:21.664Z,100786.78
2023-04-02T17:43:12.189Z,100789.96
2023-04-02T17:45:56.943Z,100788.58
2023-04-02T17:48:34.870Z,100796.66
2023-04-02T17:51:24.284Z,100800.14
2023-04-02T17:54:21.411Z,100801.55
2023-04-02T17:57:12.439Z,100807.69
2023-04-02T18:00:11.187Z,100806.85
2023-04-02T18:03:11.633Z,100809.17
2023-04-02T18:05:59.756Z,100812.95
2023-04-02T18:08:34.700Z,100818.93
2023-04-02T18:11:12.306Z,100825.20
2023-04-02T18:14:00.867Z,100827.72
2023-04-02T18:16:50.463Z,100834.13
2023-04-02T18:19:49.488Z,100839.66
2023-04-02T18:22:44.879Z,100843.69
2023-04-02T18:25:25.201Z,100847.08
2023-04-02T18:28:21.650Z,100853.32
2023-04-02T18:30:55.152Z,100855.93
2023-04-02T18:34:04.179Z,100860.22
2023-04-02T18:36:49.115Z,100868.61
2023-04-02T18:39:24.451Z,100870.73
2023-04-02T18:42:03.080Z,100876.14
2023-04-02T18:44:52.220Z,100881.66
2023-04-02T18:47:50.663Z,100883.48
2023-04-02T18:50:39.369Z,100885.68
2023-04-02T18:53:19.457Z,100887.88
2023-04-02T18:56:12.047Z,100893.07
2023-04-02T18:59:05.541Z,100897.96
2023-04-02T19:04:21.673Z,100899.81
2023-04-02T19:07:07.283Z,100901.68
2023-04-02T19:09:41.924Z,100901.80
2023-04-02T19:12:19.954Z,100906.61
2023-04-02T19:14:52.526Z,100907.81
2023-04-02T19:17:47.186Z,100912.32
2023-04-02T19:20:45.645Z,100911.48
2023-04-02T19:23:50.685Z,100914.84
2023-04-02T19:26:30.631Z,100917.02
2023-04-02T19:29:25.275Z,100918.77
2023-04-02T19:32:06.294Z,100923.13
2023-04-02T19:34:40.102Z,100924.34
2023-04-02T19:37:42.486Z,100923.55
2023-04-02T19:40:41.477Z,100926.55
2023-04-02T19:43:12.670Z,100929.55
2023-04-02T19:45:47.437Z,100930.06
2023-04-02T19:48:21.707Z,100931.61
2023-04-02T19:50:52.944Z,100932.28
2023-04-02T19:53:22.670Z,100933.66
2023-04-02T19:55:52.536Z,100939.77
2023-04-02T19:58:34.125Z,100943.79
2023-04-02T20:01:04.913Z,100946.90
2023-04-02T20:03:35.323Z,100944.58
2023-04-02T20:06:04.939Z,100946.91
2023-04-02T20:08:36.328Z,100951.13
2023-04-02T20:11:07.388Z,100950.38
2023-04-02T20:13:37.814Z,100953.63
2023-04-02T20:16:08.036Z,100953.45
2023-04-02T20:18:37.753Z,100955.61
2023-04-02T20:21:10.571Z,100956.02
2023-04-02T20:23:39.420Z,100956.05
2023-04-02T20:26:09.027Z,100960.55
2023-04-02T20:28:38.358Z,100960.83
2023-04-02T20:31:13.248Z,100964.27
2023-04-02T20:33:44.857Z,100967.33
2023-04-02T20:36:16.540Z,100979.73
2023-04-02T20:38:46.180Z,100978.70
2023-04-02T20:41:18.781Z,100979.80
2023-04-02T20:43:48.711Z,100983.38
2023-04-02T20:46:17.955Z,100982.13
2023-04-02T20:48:47.329Z,100992.91
2023-04-02T20:54:05.046Z,100997.71
2023-04-02T20:56:34.935Z,101000.22
2023-04-02T20:59:04.743Z,101001.97
2023-04-02T21:01:33.700Z,101009.40
2023-04-02T21:04:04.209Z,101011.32
2023-04-02T21:06:36.747Z,101025.29
2023-04-02T21:09:09.440Z,101022.31
2023-04-02T21:11:38.536Z,101021.67
2023-04-02T21:14:07.525Z,101022.87
2023-04-02T21:16:37.666Z,101018.77
2023-04-02T21:19:09.838Z,101015.75
2023-04-02T21:21:41.881Z,101019.05
2023-04-02T21:24:11.329Z,101021.09
2023-04-02T21:26:41.958Z,101026.08
2023-04-02T21:29:12.438Z,101034.25
2023-04-02T21:31:42.514Z,101032.30
2023-04-02T21:34:16.396Z,101031.02
2023-04-02T21:36:47.302Z,101039.55
2023-04-02T21:39:24.525Z,101037.59
2023-04-02T21:41:54.080Z,101027.95
2023-04-02T21:44:24.927Z,101041.33
2023-04-02T21:46:54.376Z,101046.17
2023-04-02T21:49:24.353Z,101051.30
2023-04-02T21:51:53.432Z,101052.36
2023-04-02T21:54:22.883Z,101055.75
2023-04-02T21:56:52.824Z,101058.83
2023-04-02T21:59:22.255Z,101051.38
2023-04-02T22:01:52.217Z,101064.44
2023-04-02T22:04:23.642Z,101067.71
2023-04-02T22:06:54.888Z,101066.83
2023-04-02T22:09:25.414Z,101063.61
2023-04-02T22:12:01.647Z,101065.75
2023-04-02T22:14:32.241Z,101068.91
2023-04-02T22:17:01.806Z,101073.81
2023-04-02T22:19:30.801Z,101078.61
2023-04-02T22:21:59.888Z,101078.44
2023-04-02T22:24:28.969Z,101075.67
2023-04-02T22:26:57.682Z,101082.45
2023-04-02T22:29:26.354Z,101078.09
2023-04-02T22:31:55.954Z,101082.85
2023-04-02T22:34:24.436Z,101086.25
2023-04-02T22:36:53.241Z,101082.89
2023-04-02T22:39:22.110Z,101086.13
2023-04-02T22:41:50.895Z,101091.83
2023-04-02T22:44:19.385Z,101088.52
2023-04-02T22:46:47.865Z,101093.03
2023-04-02T22:49:19.631Z,101092.80
2023-04-02T22:51:48.471Z,101093.02
2023-04-02T22:54:17.406Z,101097.88
2023-04-02T22:56:46.918Z,101101.67
2023-04-02T22:59:15.806Z,101101.98
2023-04-02T23:01:44.643Z,101106.19
2023-04-02T23:04:13.284Z,101105.60
2023-04-02T23:06:41.671Z,101111.20
2023-04-02T23:09:10.539Z,101117.80
2023-04-02T23:11:39.150Z,101116.31
2023-04-02T23:14:07.534Z,101117.94
2023-04-02T23:16:36.612Z,101123.70
2023-04-02T23:19:05.095Z,101124.17
2023-04-02T23:21:33.464Z,101128.88
2023-04-02T23:24:02.180Z,101125.66
2023-04-02T23:26:31.626Z,101130.05
2023-04-02T23:29:01.071Z,101133.14
2023-04-02T23:31:29.845Z,101131.48
2023-04-02T23:33:58.853Z,101130.85
2023-04-02T23:36:29.194Z,101131.50
2023-04-02T23:39:01.625Z,101130.02
2023-04-02T23:41:31.561Z,101130.35
2023-04-02T23:44:00.669Z,101124.63
2023-04-02T23:46:30.052Z,101127.80
2023-04-02T23:48:59.565Z,101130.07
2023-04-02T23:51:29.990Z,101126.98
2023-04-02T23:53:58.677Z,101132.44
2023-04-02T23:56:27.458Z,101131.19
2023-04-02T23:58:56.464Z,101135.34
